sensor_id;sensor_type;location;lat;lon;timestamp;P1;durP1;ratioP1;P2;durP2;ratioP2
62796;SDS011;48839;48.546;-4.178;2023-01-13T00:02:05;12.48;;;2.53;;
62796;SDS011;48839;48.546;-4.178;2023-01-13T00:04:31;17.98;;;3.50;;
62796;SDS011;48839;48.546;-4.178;2023-01-13T00:06:57;27.35;;;10.38;;
62796;SDS011;48839;48.546;-4.178;2023-01-13T00:09:23;22.50;;;7.72;;
62796;SDS011;48839;48.546;-4.178;2023-01-13T00:11:49;31.30;;;14.98;;
62796;SDS011;48839;48.546;-4.178;2023-01-13T00:14:15;30.33;;;13.32;;
62796;SDS011;48839;48.546;-4.178;2023-01-13T00:16:42;35.90;;;12.45;;
62796;SDS011;48839;48.546;-4.178;2023-01-13T00:19:08;27.20;;;10.00;;
62796;SDS011;48839;48.546;-4.178;2023-01-13T00:21:34;33.85;;;9.30;;
62796;SDS011;48839;48.546;-4.178;2023-01-13T00:24:01;33.13;;;14.80;;
62796;SDS011;48839;48.546;-4.178;2023-01-13T00:26:27;49.85;;;19.50;;
62796;SDS011;48839;48.546;-4.178;2023-01-13T00:28:59;39.08;;;14.63;;
62796;SDS011;48839;48.546;-4.178;2023-01-13T00:31:26;44.92;;;17.27;;
62796;SDS011;48839;48.546;-4.178;2023-01-13T00:33:54;67.88;;;30.90;;
62796;SDS011;48839;48.546;-4.178;2023-01-13T00:36:21;63.60;;;23.73;;
62796;SDS011;48839;48.546;-4.178;2023-01-13T00:38:47;44.53;;;16.73;;
62796;SDS011;48839;48.546;-4.178;2023-01-13T00:41:14;71.57;;;32.85;;
62796;SDS011;48839;48.546;-4.178;2023-01-13T00:43:40;61.22;;;24.38;;
62796;SDS011;48839;48.546;-4.178;2023-01-13T00:46:07;115.43;;;43.47;;
62796;SDS011;48839;48.546;-4.178;2023-01-13T00:48:34;133.40;;;62.45;;
62796;SDS011;48839;48.546;-4.178;2023-01-13T00:53:26;74.13;;;36.67;;
62796;SDS011;48839;48.546;-4.178;2023-01-13T00:55:59;82.40;;;39.17;;
62796;SDS011;48839;48.546;-4.178;2023-01-13T00:58:25;68.30;;;28.03;;
62796;SDS011;48839;48.546;-4.178;2023-01-13T01:00:51;105.28;;;47.83;;
62796;SDS011;48839;48.546;-4.178;2023-01-13T01:03:17;63.10;;;30.83;;
62796;SDS011;48839;48.546;-4.178;2023-01-13T01:05:44;87.10;;;41.45;;
62796;SDS011;48839;48.546;-4.178;2023-01-13T01:08:10;44.50;;;14.05;;
62796;SDS011;48839;48.546;-4.178;2023-01-13T01:10:36;42.42;;;20.13;;
62796;SDS011;48839;48.546;-4.178;2023-01-13T01:13:02;51.00;;;17.65;;
62796;SDS011;48839;48.546;-4.178;2023-01-13T01:15:28;62.88;;;31.38;;
62796;SDS011;48839;48.546;-4.178;2023-01-13T01:17:54;106.63;;;56.63;;
62796;SDS011;48839;48.546;-4.178;2023-01-13T01:20:20;39.03;;;11.45;;
62796;SDS011;48839;48.546;-4.178;2023-01-13T01:22:46;46.00;;;18.15;;
62796;SDS011;48839;48.546;-4.178;2023-01-13T01:25:12;28.35;;;17.35;;
62796;SDS011;48839;48.546;-4.178;2023-01-13T01:27:39;26.90;;;12.48;;
62796;SDS011;48839;48.546;-4.178;2023-01-13T01:30:05;21.83;;;10.30;;
62796;SDS011;48839;48.546;-4.178;2023-01-13T01:32:32;22.60;;;11.43;;
62796;SDS011;48839;48.546;-4.178;2023-01-13T01:34:58;29.30;;;14.95;;
62796;SDS011;48839;48.546;-4.178;2023-01-13T01:37:24;22.42;;;10.38;;
62796;SDS011;48839;48.546;-4.178;2023-01-13T01:39:50;51.17;;;29.90;;
62796;SDS011;48839;48.546;-4.178;2023-01-13T01:42:17;38.10;;;21.63;;
62796;SDS011;48839;48.546;-4.178;2023-01-13T01:45:18;23.80;;;13.82;;
62796;SDS011;48839;48.546;-4.178;2023-01-13T01:47:49;27.23;;;20.15;;
62796;SDS011;48839;48.546;-4.178;2023-01-13T01:50:16;7.15;;;2.88;;
62796;SDS011;48839;48.546;-4.178;2023-01-13T01:52:44;12.48;;;4.47;;
62796;SDS011;48839;48.546;-4.178;2023-01-13T01:55:15;18.40;;;5.70;;
62796;SDS011;48839;48.546;-4.178;2023-01-13T01:57:44;16.50;;;7.53;;
62796;SDS011;48839;48.546;-4.178;2023-01-13T02:00:11;10.38;;;3.47;;
62796;SDS011;48839;48.546;-4.178;2023-01-13T02:02:38;9.52;;;2.50;;
62796;SDS011;48839;48.546;-4.178;2023-01-13T02:05:04;16.02;;;7.68;;
62796;SDS011;48839;48.546;-4.178;2023-01-13T02:07:31;11.20;;;6.63;;
62796;SDS011;48839;48.546;-4.178;2023-01-13T02:09:58;11.38;;;6.50;;
62796;SDS011;48839;48.546;-4.178;2023-01-13T02:12:26;15.32;;;10.27;;
62796;SDS011;48839;48.546;-4.178;2023-01-13T02:17:32;16.25;;;6.35;;
62796;SDS011;48839;48.546;-4.178;2023-01-13T02:25:19;12.57;;;6.50;;
62796;SDS011;48839;48.546;-4.178;2023-01-13T02:27:52;24.73;;;21.13;;
62796;SDS011;48839;48.546;-4.178;2023-01-13T02:33:33;6.40;;;2.92;;
62796;SDS011;48839;48.546;-4.178;2023-01-13T02:38:48;15.52;;;7.60;;
62796;SDS011;48839;48.546;-4.178;2023-01-13T02:41:17;9.05;;;4.22;;
62796;SDS011;48839;48.546;-4.178;2023-01-13T02:44:05;7.22;;;4.65;;
62796;SDS011;48839;48.546;-4.178;2023-01-13T02:46:33;9.75;;;1.60;;
62796;SDS011;48839;48.546;-4.178;2023-01-13T02:49:03;12.25;;;2.00;;
62796;SDS011;48839;48.546;-4.178;2023-01-13T02:51:30;6.60;;;2.15;;
62796;SDS011;48839;48.546;-4.178;2023-01-13T02:54:05;5.35;;;2.40;;
62796;SDS011;48839;48.546;-4.178;2023-01-13T02:56:33;12.60;;;2.53;;
62796;SDS011;48839;48.546;-4.178;2023-01-13T02:59:00;7.95;;;1.80;;
62796;SDS011;48839;48.546;-4.178;2023-01-13T03:01:26;12.00;;;1.88;;
62796;SDS011;48839;48.546;-4.178;2023-01-13T03:03:52;7.88;;;1.70;;
62796;SDS011;48839;48.546;-4.178;2023-01-13T03:08:58;13.50;;;2.20;;
62796;SDS011;48839;48.546;-4.178;2023-01-13T03:11:26;11.93;;;2.47;;
62796;SDS011;48839;48.546;-4.178;2023-01-13T03:13:59;15.60;;;2.22;;
62796;SDS011;48839;48.546;-4.178;2023-01-13T03:31:39;10.07;;;1.90;;
62796;SDS011;48839;48.546;-4.178;2023-01-13T03:34:08;11.52;;;2.28;;
62796;SDS011;48839;48.546;-4.178;2023-01-13T03:36:37;14.70;;;2.30;;
62796;SDS011;48839;48.546;-4.178;2023-01-13T03:39:06;12.77;;;2.63;;
62796;SDS011;48839;48.546;-4.178;2023-01-13T03:41:35;9.77;;;2.00;;
62796;SDS011;48839;48.546;-4.178;2023-01-13T03:44:11;7.65;;;2.05;;
62796;SDS011;48839;48.546;-4.178;2023-01-13T03:49:23;8.60;;;1.80;;
62796;SDS011;48839;48.546;-4.178;2023-01-13T03:51:54;13.20;;;2.30;;
62796;SDS011;48839;48.546;-4.178;2023-01-13T03:54:21;16.58;;;5.88;;
62796;SDS011;48839;48.546;-4.178;2023-01-13T03:56:56;16.65;;;3.90;;
62796;SDS011;48839;48.546;-4.178;2023-01-13T03:59:25;19.25;;;5.00;;
62796;SDS011;48839;48.546;-4.178;2023-01-13T04:01:57;14.50;;;3.47;;
62796;SDS011;48839;48.546;-4.178;2023-01-13T04:07:06;16.85;;;6.78;;
62796;SDS011;48839;48.546;-4.178;2023-01-13T04:14:31;17.70;;;3.25;;
62796;SDS011;48839;48.546;-4.178;2023-01-13T04:16:58;39.70;;;19.05;;
62796;SDS011;48839;48.546;-4.178;2023-01-13T04:19:24;31.75;;;16.02;;
62796;SDS011;48839;48.546;-4.178;2023-01-13T04:21:50;34.03;;;16.23;;
62796;SDS011;48839;48.546;-4.178;2023-01-13T04:24:16;31.17;;;11.82;;
62796;SDS011;48839;48.546;-4.178;2023-01-13T04:26:42;20.52;;;7.78;;
62796;SDS011;48839;48.546;-4.178;2023-01-13T04:29:08;18.98;;;7.85;;
62796;SDS011;48839;48.546;-4.178;2023-01-13T04:31:34;16.25;;;7.57;;
62796;SDS011;48839;48.546;-4.178;2023-01-13T04:34:00;15.52;;;3.97;;
62796;SDS011;48839;48.546;-4.178;2023-01-13T04:36:26;11.77;;;4.68;;
62796;SDS011;48839;48.546;-4.178;2023-01-13T04:38:55;20.38;;;3.53;;
62796;SDS011;48839;48.546;-4.178;2023-01-13T04:41:21;13.52;;;3.83;;
62796;SDS011;48839;48.546;-4.178;2023-01-13T04:43:47;5.72;;;1.70;;
62796;SDS011;48839;48.546;-4.178;2023-01-13T04:46:13;3.67;;;1.40;;
62796;SDS011;48839;48.546;-4.178;2023-01-13T04:48:39;11.30;;;2.03;;
62796;SDS011;48839;48.546;-4.178;2023-01-13T04:51:05;7.75;;;1.83;;
62796;SDS011;48839;48.546;-4.178;2023-01-13T04:53:31;11.50;;;2.13;;
62796;SDS011;48839;48.546;-4.178;2023-01-13T04:55:57;4.35;;;2.08;;
62796;SDS011;48839;48.546;-4.178;2023-01-13T04:58:23;10.05;;;2.10;;
62796;SDS011;48839;48.546;-4.178;2023-01-13T05:00:49;11.45;;;2.50;;
62796;SDS011;48839;48.546;-4.178;2023-01-13T05:03:15;15.70;;;3.58;;
62796;SDS011;48839;48.546;-4.178;2023-01-13T05:05:42;14.20;;;2.85;;
62796;SDS011;48839;48.546;-4.178;2023-01-13T05:08:08;10.32;;;2.10;;
62796;SDS011;48839;48.546;-4.178;2023-01-13T05:10:34;11.98;;;2.58;;
62796;SDS011;48839;48.546;-4.178;2023-01-13T05:13:01;7.05;;;2.88;;
62796;SDS011;48839;48.546;-4.178;2023-01-13T05:15:45;8.93;;;2.30;;
62796;SDS011;48839;48.546;-4.178;2023-01-13T05:18:30;12.95;;;2.47;;
62796;SDS011;48839;48.546;-4.178;2023-01-13T05:20:56;10.75;;;2.67;;
62796;SDS011;48839;48.546;-4.178;2023-01-13T05:23:22;10.95;;;2.80;;
62796;SDS011;48839;48.546;-4.178;2023-01-13T05:26:07;17.35;;;2.50;;
62796;SDS011;48839;48.546;-4.178;2023-01-13T05:28:33;25.48;;;5.78;;
62796;SDS011;48839;48.546;-4.178;2023-01-13T05:30:59;18.15;;;5.40;;
62796;SDS011;48839;48.546;-4.178;2023-01-13T05:33:25;15.50;;;2.80;;
62796;SDS011;48839;48.546;-4.178;2023-01-13T05:35:51;19.23;;;3.08;;
62796;SDS011;48839;48.546;-4.178;2023-01-13T05:38:17;12.90;;;2.53;;
62796;SDS011;48839;48.546;-4.178;2023-01-13T05:40:43;15.45;;;3.15;;
62796;SDS011;48839;48.546;-4.178;2023-01-13T05:43:28;16.42;;;2.63;;
62796;SDS011;48839;48.546;-4.178;2023-01-13T05:45:55;8.40;;;2.17;;
62796;SDS011;48839;48.546;-4.178;2023-01-13T05:48:23;13.90;;;2.55;;
62796;SDS011;48839;48.546;-4.178;2023-01-13T05:50:50;11.45;;;2.55;;
62796;SDS011;48839;48.546;-4.178;2023-01-13T05:53:17;6.05;;;1.60;;
62796;SDS011;48839;48.546;-4.178;2023-01-13T05:55:44;7.93;;;2.60;;
62796;SDS011;48839;48.546;-4.178;2023-01-13T05:58:10;9.75;;;1.65;;
62796;SDS011;48839;48.546;-4.178;2023-01-13T06:00:37;6.97;;;1.23;;
62796;SDS011;48839;48.546;-4.178;2023-01-13T06:03:03;10.00;;;2.78;;
62796;SDS011;48839;48.546;-4.178;2023-01-13T06:05:29;11.52;;;2.70;;
62796;SDS011;48839;48.546;-4.178;2023-01-13T06:07:56;9.65;;;2.00;;
62796;SDS011;48839;48.546;-4.178;2023-01-13T06:10:22;11.40;;;2.35;;
62796;SDS011;48839;48.546;-4.178;2023-01-13T06:12:48;5.10;;;2.30;;
62796;SDS011;48839;48.546;-4.178;2023-01-13T06:15:14;6.88;;;2.33;;
62796;SDS011;48839;48.546;-4.178;2023-01-13T06:17:40;11.75;;;2.53;;
62796;SDS011;48839;48.546;-4.178;2023-01-13T06:20:07;9.15;;;3.00;;
62796;SDS011;48839;48.546;-4.178;2023-01-13T06:22:33;11.23;;;2.70;;
62796;SDS011;48839;48.546;-4.178;2023-01-13T06:25:03;10.45;;;1.85;;
62796;SDS011;48839;48.546;-4.178;2023-01-13T06:27:31;10.23;;;2.25;;
62796;SDS011;48839;48.546;-4.178;2023-01-13T06:29:57;7.80;;;1.95;;
62796;SDS011;48839;48.546;-4.178;2023-01-13T06:32:24;3.65;;;1.48;;
62796;SDS011;48839;48.546;-4.178;2023-01-13T06:34:52;6.78;;;1.60;;
62796;SDS011;48839;48.546;-4.178;2023-01-13T06:37:18;10.15;;;1.95;;
62796;SDS011;48839;48.546;-4.178;2023-01-13T06:39:49;8.85;;;1.90;;
62796;SDS011;48839;48.546;-4.178;2023-01-13T06:42:15;6.72;;;1.67;;
62796;SDS011;48839;48.546;-4.178;2023-01-13T06:44:59;4.53;;;1.50;;
62796;SDS011;48839;48.546;-4.178;2023-01-13T06:47:25;14.68;;;2.58;;
62796;SDS011;48839;48.546;-4.178;2023-01-13T06:49:52;7.82;;;2.00;;
62796;SDS011;48839;48.546;-4.178;2023-01-13T06:52:18;10.18;;;2.22;;
62796;SDS011;48839;48.546;-4.178;2023-01-13T06:54:44;10.60;;;2.35;;
62796;SDS011;48839;48.546;-4.178;2023-01-13T06:57:10;9.35;;;3.08;;
62796;SDS011;48839;48.546;-4.178;2023-01-13T06:59:36;10.15;;;2.40;;
62796;SDS011;48839;48.546;-4.178;2023-01-13T07:02:02;13.15;;;2.70;;
62796;SDS011;48839;48.546;-4.178;2023-01-13T07:04:28;10.02;;;2.00;;
62796;SDS011;48839;48.546;-4.178;2023-01-13T07:06:54;12.63;;;2.30;;
62796;SDS011;48839;48.546;-4.178;2023-01-13T07:09:20;20.92;;;4.07;;
62796;SDS011;48839;48.546;-4.178;2023-01-13T07:11:46;12.43;;;2.72;;
62796;SDS011;48839;48.546;-4.178;2023-01-13T07:14:12;19.27;;;2.90;;
62796;SDS011;48839;48.546;-4.178;2023-01-13T07:16:57;11.95;;;2.83;;
62796;SDS011;48839;48.546;-4.178;2023-01-13T07:19:23;13.35;;;2.90;;
62796;SDS011;48839;48.546;-4.178;2023-01-13T07:21:50;15.52;;;3.28;;
62796;SDS011;48839;48.546;-4.178;2023-01-13T07:24:16;14.30;;;2.80;;
62796;SDS011;48839;48.546;-4.178;2023-01-13T07:26:43;13.60;;;2.28;;
62796;SDS011;48839;48.546;-4.178;2023-01-13T07:29:09;16.75;;;3.42;;
62796;SDS011;48839;48.546;-4.178;2023-01-13T07:31:35;11.40;;;2.22;;
62796;SDS011;48839;48.546;-4.178;2023-01-13T07:34:01;13.95;;;2.10;;
62796;SDS011;48839;48.546;-4.178;2023-01-13T07:36:27;15.52;;;2.90;;
62796;SDS011;48839;48.546;-4.178;2023-01-13T07:38:53;16.10;;;2.35;;
62796;SDS011;48839;48.546;-4.178;2023-01-13T07:41:20;9.57;;;2.42;;
62796;SDS011;48839;48.546;-4.178;2023-01-13T07:44:05;7.90;;;2.22;;
62796;SDS011;48839;48.546;-4.178;2023-01-13T07:46:32;7.95;;;1.90;;
62796;SDS011;48839;48.546;-4.178;2023-01-13T07:48:58;9.88;;;1.90;;
62796;SDS011;48839;48.546;-4.178;2023-01-13T07:51:24;12.68;;;4.00;;
62796;SDS011;48839;48.546;-4.178;2023-01-13T07:53:50;13.45;;;2.35;;
62796;SDS011;48839;48.546;-4.178;2023-01-13T07:56:16;9.13;;;2.25;;
62796;SDS011;48839;48.546;-4.178;2023-01-13T07:58:42;4.82;;;2.10;;
62796;SDS011;48839;48.546;-4.178;2023-01-13T08:01:14;15.60;;;2.83;;
62796;SDS011;48839;48.546;-4.178;2023-01-13T08:03:40;12.68;;;4.65;;
62796;SDS011;48839;48.546;-4.178;2023-01-13T08:06:07;10.77;;;2.50;;
62796;SDS011;48839;48.546;-4.178;2023-01-13T08:08:33;16.33;;;2.90;;
62796;SDS011;48839;48.546;-4.178;2023-01-13T08:11:00;12.80;;;2.45;;
62796;SDS011;48839;48.546;-4.178;2023-01-13T08:13:26;12.93;;;2.03;;
62796;SDS011;48839;48.546;-4.178;2023-01-13T08:15:54;13.48;;;3.08;;
62796;SDS011;48839;48.546;-4.178;2023-01-13T08:18:23;19.50;;;2.80;;
62796;SDS011;48839;48.546;-4.178;2023-01-13T08:20:49;13.10;;;4.18;;
62796;SDS011;48839;48.546;-4.178;2023-01-13T08:23:19;15.57;;;2.92;;
62796;SDS011;48839;48.546;-4.178;2023-01-13T08:25:45;23.55;;;3.97;;
62796;SDS011;48839;48.546;-4.178;2023-01-13T08:28:11;26.35;;;11.23;;
62796;SDS011;48839;48.546;-4.178;2023-01-13T08:30:38;19.27;;;9.35;;
62796;SDS011;48839;48.546;-4.178;2023-01-13T08:33:08;36.97;;;12.93;;
62796;SDS011;48839;48.546;-4.178;2023-01-13T08:35:35;29.00;;;11.85;;
62796;SDS011;48839;48.546;-4.178;2023-01-13T08:38:02;50.05;;;20.70;;
62796;SDS011;48839;48.546;-4.178;2023-01-13T08:40:28;61.42;;;28.60;;
62796;SDS011;48839;48.546;-4.178;2023-01-13T08:42:55;61.78;;;26.45;;
62796;SDS011;48839;48.546;-4.178;2023-01-13T08:45:21;42.13;;;20.40;;
62796;SDS011;48839;48.546;-4.178;2023-01-13T08:47:47;29.77;;;9.27;;
62796;SDS011;48839;48.546;-4.178;2023-01-13T08:50:13;43.35;;;20.08;;
62796;SDS011;48839;48.546;-4.178;2023-01-13T08:52:39;41.22;;;14.45;;
62796;SDS011;48839;48.546;-4.178;2023-01-13T08:55:05;22.83;;;11.88;;
62796;SDS011;48839;48.546;-4.178;2023-01-13T08:57:32;36.83;;;20.42;;
62796;SDS011;48839;48.546;-4.178;2023-01-13T08:59:58;30.50;;;8.75;;
62796;SDS011;48839;48.546;-4.178;2023-01-13T09:02:24;25.40;;;7.95;;
62796;SDS011;48839;48.546;-4.178;2023-01-13T09:04:50;22.60;;;8.55;;
62796;SDS011;48839;48.546;-4.178;2023-01-13T09:07:17;30.38;;;6.53;;
62796;SDS011;48839;48.546;-4.178;2023-01-13T09:09:43;17.30;;;4.53;;
62796;SDS011;48839;48.546;-4.178;2023-01-13T09:12:13;22.67;;;5.82;;
62796;SDS011;48839;48.546;-4.178;2023-01-13T09:14:57;16.48;;;5.70;;
62796;SDS011;48839;48.546;-4.178;2023-01-13T09:17:24;21.67;;;4.45;;
62796;SDS011;48839;48.546;-4.178;2023-01-13T09:19:50;17.75;;;4.50;;
62796;SDS011;48839;48.546;-4.178;2023-01-13T09:22:16;15.57;;;5.57;;
62796;SDS011;48839;48.546;-4.178;2023-01-13T09:24:43;20.17;;;5.10;;
62796;SDS011;48839;48.546;-4.178;2023-01-13T09:27:09;18.60;;;5.22;;
62796;SDS011;48839;48.546;-4.178;2023-01-13T09:29:36;17.95;;;4.65;;
62796;SDS011;48839;48.546;-4.178;2023-01-13T09:32:02;17.65;;;4.35;;
62796;SDS011;48839;48.546;-4.178;2023-01-13T09:34:29;22.42;;;4.57;;
62796;SDS011;48839;48.546;-4.178;2023-01-13T09:37:14;27.77;;;5.38;;
62796;SDS011;48839;48.546;-4.178;2023-01-13T09:39:40;20.33;;;4.10;;
62796;SDS011;48839;48.546;-4.178;2023-01-13T09:45:13;16.48;;;3.92;;
62796;SDS011;48839;48.546;-4.178;2023-01-13T09:52:38;20.05;;;3.97;;
62796;SDS011;48839;48.546;-4.178;2023-01-13T09:55:09;18.33;;;4.40;;
62796;SDS011;48839;48.546;-4.178;2023-01-13T09:57:36;14.73;;;4.22;;
62796;SDS011;48839;48.546;-4.178;2023-01-13T10:00:26;17.80;;;4.70;;
62796;SDS011;48839;48.546;-4.178;2023-01-13T10:05:38;14.60;;;3.22;;
62796;SDS011;48839;48.546;-4.178;2023-01-13T10:08:12;14.02;;;4.20;;
62796;SDS011;48839;48.546;-4.178;2023-01-13T10:13:17;25.77;;;7.90;;
62796;SDS011;48839;48.546;-4.178;2023-01-13T10:15:52;27.98;;;7.75;;
62796;SDS011;48839;48.546;-4.178;2023-01-13T10:23:26;25.25;;;6.90;;
62796;SDS011;48839;48.546;-4.178;2023-01-13T10:26:24;24.70;;;7.28;;
62796;SDS011;48839;48.546;-4.178;2023-01-13T10:28:53;20.00;;;3.92;;
62796;SDS011;48839;48.546;-4.178;2023-01-13T10:31:20;18.35;;;4.45;;
62796;SDS011;48839;48.546;-4.178;2023-01-13T10:33:47;13.15;;;3.05;;
62796;SDS011;48839;48.546;-4.178;2023-01-13T10:36:14;14.60;;;3.78;;
62796;SDS011;48839;48.546;-4.178;2023-01-13T10:38:44;12.73;;;3.30;;
62796;SDS011;48839;48.546;-4.178;2023-01-13T10:43:44;16.50;;;3.42;;
62796;SDS011;48839;48.546;-4.178;2023-01-13T10:46:13;13.00;;;3.00;;
62796;SDS011;48839;48.546;-4.178;2023-01-13T10:48:43;15.45;;;3.80;;
62796;SDS011;48839;48.546;-4.178;2023-01-13T10:51:17;13.63;;;3.15;;
62796;SDS011;48839;48.546;-4.178;2023-01-13T10:53:45;17.73;;;3.60;;
62796;SDS011;48839;48.546;-4.178;2023-01-13T10:56:15;18.38;;;3.05;;
62796;SDS011;48839;48.546;-4.178;2023-01-13T10:58:41;21.58;;;4.82;;
62796;SDS011;48839;48.546;-4.178;2023-01-13T11:01:11;15.63;;;3.30;;
62796;SDS011;48839;48.546;-4.178;2023-01-13T11:03:41;25.05;;;4.45;;
62796;SDS011;48839;48.546;-4.178;2023-01-13T11:06:09;20.77;;;4.55;;
62796;SDS011;48839;48.546;-4.178;2023-01-13T11:08:44;16.15;;;3.75;;
62796;SDS011;48839;48.546;-4.178;2023-01-13T11:13:49;16.30;;;5.47;;
62796;SDS011;48839;48.546;-4.178;2023-01-13T11:16:52;23.38;;;4.57;;
62796;SDS011;48839;48.546;-4.178;2023-01-13T11:19:20;29.00;;;4.07;;
62796;SDS011;48839;48.546;-4.178;2023-01-13T11:27:30;19.98;;;3.45;;
62796;SDS011;48839;48.546;-4.178;2023-01-13T11:30:02;14.20;;;2.65;;
62796;SDS011;48839;48.546;-4.178;2023-01-13T11:32:34;24.58;;;3.92;;
62796;SDS011;48839;48.546;-4.178;2023-01-13T11:35:03;27.33;;;3.97;;
62796;SDS011;48839;48.546;-4.178;2023-01-13T11:37:35;16.38;;;3.58;;
62796;SDS011;48839;48.546;-4.178;2023-01-13T11:40:08;13.30;;;3.03;;
62796;SDS011;48839;48.546;-4.178;2023-01-13T11:42:47;17.52;;;4.07;;
62796;SDS011;48839;48.546;-4.178;2023-01-13T11:47:59;23.10;;;3.45;;
62796;SDS011;48839;48.546;-4.178;2023-01-13T12:01:48;16.77;;;3.75;;
62796;SDS011;48839;48.546;-4.178;2023-01-13T12:03:39;20.35;;;3.90;;
62796;SDS011;48839;48.546;-4.178;2023-01-13T12:11:08;27.50;;;4.13;;
62796;SDS011;48839;48.546;-4.178;2023-01-13T12:21:22;33.33;;;9.40;;
62796;SDS011;48839;48.546;-4.178;2023-01-13T12:26:22;28.98;;;10.45;;
62796;SDS011;48839;48.546;-4.178;2023-01-13T12:28:56;36.80;;;14.82;;
62796;SDS011;48839;48.546;-4.178;2023-01-13T12:33:58;66.35;;;28.92;;
62796;SDS011;48839;48.546;-4.178;2023-01-13T12:39:00;28.05;;;9.18;;
62796;SDS011;48839;48.546;-4.178;2023-01-13T12:43:56;34.45;;;16.98;;
62796;SDS011;48839;48.546;-4.178;2023-01-13T12:46:46;25.10;;;9.82;;
62796;SDS011;48839;48.546;-4.178;2023-01-13T12:49:20;22.67;;;7.07;;
62796;SDS011;48839;48.546;-4.178;2023-01-13T12:57:00;15.40;;;4.60;;
62796;SDS011;48839;48.546;-4.178;2023-01-13T12:59:39;17.77;;;3.92;;
62796;SDS011;48839;48.546;-4.178;2023-01-13T13:04:52;18.50;;;3.95;;
62796;SDS011;48839;48.546;-4.178;2023-01-13T13:09:57;14.35;;;4.22;;
62796;SDS011;48839;48.546;-4.178;2023-01-13T13:15:19;17.90;;;3.80;;
62796;SDS011;48839;48.546;-4.178;2023-01-13T13:17:59;15.75;;;4.05;;
62796;SDS011;48839;48.546;-4.178;2023-01-13T13:28:36;13.82;;;4.20;;
62796;SDS011;48839;48.546;-4.178;2023-01-13T13:36:23;24.00;;;4.40;;
62796;SDS011;48839;48.546;-4.178;2023-01-13T13:45:16;20.42;;;6.80;;
62796;SDS011;48839;48.546;-4.178;2023-01-13T13:48:17;16.50;;;6.05;;
62796;SDS011;48839;48.546;-4.178;2023-01-13T13:50:46;15.02;;;3.40;;
62796;SDS011;48839;48.546;-4.178;2023-01-13T13:53:12;14.88;;;3.00;;
62796;SDS011;48839;48.546;-4.178;2023-01-13T13:55:38;19.83;;;4.07;;
62796;SDS011;48839;48.546;-4.178;2023-01-13T13:58:11;9.65;;;2.90;;
62796;SDS011;48839;48.546;-4.178;2023-01-13T14:00:41;16.75;;;3.50;;
62796;SDS011;48839;48.546;-4.178;2023-01-13T14:03:24;18.65;;;3.63;;
62796;SDS011;48839;48.546;-4.178;2023-01-13T14:05:58;17.15;;;3.95;;
62796;SDS011;48839;48.546;-4.178;2023-01-13T14:10:50;26.88;;;6.22;;
62796;SDS011;48839;48.546;-4.178;2023-01-13T14:15:49;131.30;;;59.70;;
62796;SDS011;48839;48.546;-4.178;2023-01-13T14:18:20;44.40;;;26.77;;
62796;SDS011;48839;48.546;-4.178;2023-01-13T14:23:18;21.85;;;10.43;;
62796;SDS011;48839;48.546;-4.178;2023-01-13T14:25:47;27.60;;;5.20;;
62796;SDS011;48839;48.546;-4.178;2023-01-13T14:28:24;19.20;;;7.40;;
62796;SDS011;48839;48.546;-4.178;2023-01-13T14:30:51;20.48;;;4.30;;
62796;SDS011;48839;48.546;-4.178;2023-01-13T14:36:05;18.92;;;4.30;;
62796;SDS011;48839;48.546;-4.178;2023-01-13T14:38:31;27.88;;;5.68;;
62796;SDS011;48839;48.546;-4.178;2023-01-13T14:41:07;16.88;;;4.60;;
62796;SDS011;48839;48.546;-4.178;2023-01-13T14:43:34;13.95;;;4.28;;
62796;SDS011;48839;48.546;-4.178;2023-01-13T14:46:00;15.80;;;4.13;;
62796;SDS011;48839;48.546;-4.178;2023-01-13T14:48:31;13.25;;;2.70;;
62796;SDS011;48839;48.546;-4.178;2023-01-13T14:51:00;9.98;;;3.50;;
62796;SDS011;48839;48.546;-4.178;2023-01-13T14:53:37;17.02;;;3.50;;
62796;SDS011;48839;48.546;-4.178;2023-01-13T14:58:48;18.17;;;7.97;;
62796;SDS011;48839;48.546;-4.178;2023-01-13T15:01:47;12.75;;;3.33;;
62796;SDS011;48839;48.546;-4.178;2023-01-13T15:07:02;14.73;;;5.75;;
62796;SDS011;48839;48.546;-4.178;2023-01-13T15:09:32;16.10;;;5.43;;
62796;SDS011;48839;48.546;-4.178;2023-01-13T15:12:15;11.95;;;3.50;;
62796;SDS011;48839;48.546;-4.178;2023-01-13T15:14:41;11.05;;;5.15;;
62796;SDS011;48839;48.546;-4.178;2023-01-13T15:17:10;12.13;;;5.97;;
62796;SDS011;48839;48.546;-4.178;2023-01-13T15:19:39;15.68;;;5.65;;
62796;SDS011;48839;48.546;-4.178;2023-01-13T15:22:05;10.13;;;3.53;;
62796;SDS011;48839;48.546;-4.178;2023-01-13T15:24:31;16.80;;;3.10;;
62796;SDS011;48839;48.546;-4.178;2023-01-13T15:26:57;94.47;;;46.28;;
62796;SDS011;48839;48.546;-4.178;2023-01-13T15:29:23;9.40;;;2.15;;
62796;SDS011;48839;48.546;-4.178;2023-01-13T15:31:49;13.70;;;2.97;;
62796;SDS011;48839;48.546;-4.178;2023-01-13T15:34:15;10.32;;;2.30;;
62796;SDS011;48839;48.546;-4.178;2023-01-13T15:36:41;9.95;;;2.85;;
62796;SDS011;48839;48.546;-4.178;2023-01-13T15:39:08;16.05;;;2.22;;
62796;SDS011;48839;48.546;-4.178;2023-01-13T15:41:36;9.82;;;2.10;;
62796;SDS011;48839;48.546;-4.178;2023-01-13T15:44:20;15.85;;;2.75;;
62796;SDS011;48839;48.546;-4.178;2023-01-13T15:47:05;11.18;;;2.30;;
62796;SDS011;48839;48.546;-4.178;2023-01-13T15:52:02;10.65;;;3.33;;
62796;SDS011;48839;48.546;-4.178;2023-01-13T15:54:28;10.10;;;1.92;;
62796;SDS011;48839;48.546;-4.178;2023-01-13T15:56:54;10.90;;;2.13;;
62796;SDS011;48839;48.546;-4.178;2023-01-13T15:59:21;8.48;;;1.92;;
62796;SDS011;48839;48.546;-4.178;2023-01-13T16:01:48;6.65;;;1.77;;
62796;SDS011;48839;48.546;-4.178;2023-01-13T16:04:14;10.52;;;2.92;;
62796;SDS011;48839;48.546;-4.178;2023-01-13T16:06:40;12.95;;;2.00;;
62796;SDS011;48839;48.546;-4.178;2023-01-13T16:09:07;14.35;;;3.15;;
62796;SDS011;48839;48.546;-4.178;2023-01-13T16:11:33;10.35;;;4.10;;
62796;SDS011;48839;48.546;-4.178;2023-01-13T16:13:59;11.27;;;2.25;;
62796;SDS011;48839;48.546;-4.178;2023-01-13T16:16:26;11.40;;;3.05;;
62796;SDS011;48839;48.546;-4.178;2023-01-13T16:18:53;7.85;;;2.70;;
62796;SDS011;48839;48.546;-4.178;2023-01-13T16:21:19;10.40;;;2.50;;
62796;SDS011;48839;48.546;-4.178;2023-01-13T16:23:46;5.25;;;2.03;;
62796;SDS011;48839;48.546;-4.178;2023-01-13T16:26:17;12.35;;;2.15;;
62796;SDS011;48839;48.546;-4.178;2023-01-13T16:28:43;8.00;;;1.75;;
62796;SDS011;48839;48.546;-4.178;2023-01-13T16:31:26;9.43;;;1.90;;
62796;SDS011;48839;48.546;-4.178;2023-01-13T16:33:54;8.07;;;1.85;;
62796;SDS011;48839;48.546;-4.178;2023-01-13T16:36:21;11.38;;;2.80;;
62796;SDS011;48839;48.546;-4.178;2023-01-13T16:38:47;18.17;;;8.32;;
62796;SDS011;48839;48.546;-4.178;2023-01-13T16:41:14;11.15;;;6.22;;
62796;SDS011;48839;48.546;-4.178;2023-01-13T16:43:40;22.88;;;7.25;;
62796;SDS011;48839;48.546;-4.178;2023-01-13T16:46:13;10.25;;;6.50;;
62796;SDS011;48839;48.546;-4.178;2023-01-13T16:48:41;21.33;;;9.32;;
62796;SDS011;48839;48.546;-4.178;2023-01-13T16:51:07;33.08;;;16.48;;
62796;SDS011;48839;48.546;-4.178;2023-01-13T16:53:33;20.23;;;8.35;;
62796;SDS011;48839;48.546;-4.178;2023-01-13T16:55:59;14.38;;;6.85;;
62796;SDS011;48839;48.546;-4.178;2023-01-13T16:58:25;47.35;;;22.40;;
62796;SDS011;48839;48.546;-4.178;2023-01-13T17:00:51;46.60;;;19.58;;
62796;SDS011;48839;48.546;-4.178;2023-01-13T17:03:17;43.60;;;18.38;;
62796;SDS011;48839;48.546;-4.178;2023-01-13T17:05:44;45.80;;;19.85;;
62796;SDS011;48839;48.546;-4.178;2023-01-13T17:08:14;112.03;;;48.50;;
62796;SDS011;48839;48.546;-4.178;2023-01-13T17:10:41;99.35;;;40.75;;
62796;SDS011;48839;48.546;-4.178;2023-01-13T17:13:08;44.88;;;17.63;;